LLHA/HFA METAR and TAF weather

Enter ICAO airport designator
Station Type Date Time Source
LLHA METAR 2018/12/17 16:50 UTC NOAA

LLHA 171650Z 23007KT 190V260 9999 FEW015 SCT030 17/13 Q1018 RERA RMK BKN065


Station Type Date Time Source
LLHA Decoded METAR 2018/12/17 16:50 UTC NOAA

Sde-Haifa Haifa, Israel (LLHA) 32-48N 035-02E 8M
Dec 17, 2018 - 11:50 AM EST / 2018.12.17 1650 UTC
Wind: from the SW (230 degrees) at 8 MPH (7 KT) (direction variable):0
Visibility: greater than 7 mile(s):0
Sky conditions: partly cloudy
Temperature: 62 F (17 C)
Dew Point: 55 F (13 C)
Relative Humidity: 77%
Pressure (altimeter): 30.06 in. Hg (1018 hPa)
ob: LLHA 171650Z 23007KT 190V260 9999 FEW015 SCT030 17/13 Q1018 RERA RMK BKN065
cycle: 17

Station Type Date Time Source
LLHA TAF 2018/12/17 18:00 UTC NOAA

TAF LLHA 171712Z 1718/1818 19012KT 8000 RA FEW025TCU BKN030
TEMPO 1718/1808 21018G28KT 5000 TSRA FEW025CB BKN030
BECMG 1815/1817 9999 SCT030TCU BKN030 TX19/1812Z TN14/1804Z


Example: see airport list